Time;durP1;ratioP1;P1;durP2;ratioP2;P2;SDS_P1;SDS_P2;PMS_P1;PMS_P2;Temp;Humidity;BMP_temperature;BMP_pressure;BME280_temperature;BME280_humidity;BME280_pressure;Samples;Min_cycle;Max_cycle;Signal;HPM_P1;HPM_P2
2022/05/16 00:07:28;;;;;;;47.53;28.83;;;12.20;99.90;;;;;;20912414;28;20068;-59
2022/05/16 00:17:31;;;;;;;48.63;27.42;;;12.20;99.90;;;;;;20920143;28;20044;-59
2022/05/16 00:27:34;;;;;;;56.17;33.65;;;12.10;99.90;;;;;;20933262;28;20126;-51
2022/05/16 00:37:38;;;;;;;51.50;31.80;;;12.10;99.90;;;;;;20894037;28;20044;-59
2022/05/16 00:47:41;;;;;;;59.67;34.67;;;12.20;99.90;;;;;;21046880;27;20091;-53
2022/05/16 00:57:50;;;;;;;50.53;29.30;;;12.40;99.90;;;;;;21152537;27;20421;-58
2022/05/16 01:07:59;;;;;;;44.63;26.23;;;12.50;99.90;;;;;;21198052;27;20088;-53
2022/05/16 01:18:05;;;;;;;42.85;26.88;;;12.60;99.90;;;;;;21137321;27;20533;-53
2022/05/16 01:28:08;;;;;;;37.22;22.65;;;12.90;99.90;;;;;;21197314;27;20404;-49
2022/05/16 01:38:18;;;;;;;39.35;24.45;;;13.10;99.90;;;;;;21160013;27;20559;-59
2022/05/16 01:48:22;;;;;;;35.97;21.73;;;13.20;99.90;;;;;;21181256;27;20519;-59
2022/05/16 01:58:25;;;;;;;33.20;20.95;;;13.10;99.90;;;;;;21200253;27;20608;-60
2022/05/16 02:08:28;;;;;;;33.30;21.85;;;13.00;99.90;;;;;;21186417;27;20047;-54
2022/05/16 02:18:30;;;;;;;41.80;22.55;;;12.90;99.90;;;;;;21174047;27;20036;-59
2022/05/16 02:28:34;;;;;;;34.60;21.30;;;12.80;99.90;;;;;;21172782;27;20035;-59
2022/05/16 02:38:36;;;;;;;32.42;21.90;;;12.90;99.90;;;;;;21133009;28;20032;-53
2022/05/16 02:48:39;;;;;;;26.90;18.17;;;13.00;99.90;;;;;;21154210;28;20431;-50
2022/05/16 02:58:43;;;;;;;27.90;19.17;;;13.30;99.90;;;;;;21162104;28;20487;-59
2022/05/16 03:08:46;;;;;;;29.55;19.40;;;13.50;99.90;;;;;;21169748;28;20039;-59
2022/05/16 03:18:48;;;;;;;24.80;16.70;;;13.50;99.90;;;;;;21202316;28;20186;-59
2022/05/16 03:28:52;;;;;;;29.83;19.27;;;13.30;99.90;;;;;;21184873;28;20092;-51
2022/05/16 03:49:18;;;;;;;34.60;20.35;;;13.00;99.90;;;;;;21150851;28;20047;-59
2022/05/16 03:59:21;;;;;;;34.47;20.23;;;12.90;99.90;;;;;;21139978;28;20069;-58
2022/05/16 04:09:23;;;;;;;33.92;21.48;;;12.80;99.90;;;;;;21138659;28;20104;-50
2022/05/16 04:19:26;;;;;;;30.23;19.02;;;12.80;99.90;;;;;;21138033;28;20040;-53
2022/05/16 04:29:29;;;;;;;29.30;18.10;;;13.00;99.90;;;;;;21137417;28;20115;-54
2022/05/16 04:39:31;;;;;;;26.58;16.65;;;13.40;99.90;;;;;;21136536;28;20028;-59
2022/05/16 04:49:35;;;;;;;25.80;15.40;;;13.70;99.90;;;;;;21067473;28;20105;-59
2022/05/16 04:59:37;;;;;;;23.38;14.82;;;14.10;99.90;;;;;;21067659;28;20040;-51
2022/05/16 05:20:04;;;;;;;21.60;12.15;;;15.40;99.90;;;;;;21065842;28;20031;-60
2022/05/16 05:30:13;;;;;;;17.33;10.93;;;16.00;99.90;;;;;;21065031;28;20036;-60
2022/05/16 05:40:17;;;;;;;11.02;7.28;;;16.70;99.90;;;;;;21048064;28;20036;-53
2022/05/16 05:50:19;;;;;;;13.30;6.93;;;17.30;99.90;;;;;;21132091;28;20346;-60
2022/05/16 06:00:22;;;;;;;9.45;6.43;;;17.70;99.90;;;;;;21129802;28;20112;-61
2022/05/16 06:10:24;;;;;;;10.80;7.95;;;18.30;99.90;;;;;;21130868;28;20084;-60
2022/05/16 06:20:27;;;;;;;10.02;6.65;;;18.70;99.90;;;;;;21129189;28;20096;-62
2022/05/16 06:30:30;;;;;;;10.55;6.35;;;21.00;99.90;;;;;;21128085;28;20131;-62
2022/05/16 06:40:34;;;;;;;11.45;7.00;;;23.80;99.90;;;;;;21128289;28;20024;-57
2022/05/16 06:50:38;;;;;;;13.60;7.95;;;25.80;99.90;;;;;;21058044;28;20043;-61
2022/05/16 07:00:41;;;;;;;9.68;6.65;;;27.20;95.90;;;;;;21060087;28;20044;-57
2022/05/16 07:10:46;;;;;;;10.52;7.15;;;26.70;96.00;;;;;;21069530;28;20032;-57
2022/05/16 07:20:48;;;;;;;9.02;7.65;;;26.70;95.80;;;;;;21075698;28;20036;-62
2022/05/16 07:30:52;;;;;;;15.27;9.52;;;26.50;95.50;;;;;;21074635;28;20032;-57
2022/05/16 07:40:56;;;;;;;10.82;9.00;;;24.30;97.30;;;;;;21073727;28;20109;-62
2022/05/16 07:50:59;;;;;;;13.23;8.80;;;23.70;99.90;;;;;;21070499;28;20117;-64
2022/05/16 08:01:03;;;;;;;8.27;7.05;;;24.80;99.10;;;;;;21072477;28;20039;-63
2022/05/16 08:11:06;;;;;;;11.93;8.55;;;25.60;96.50;;;;;;21071403;28;20128;-56
2022/05/16 08:21:10;;;;;;;16.73;7.95;;;23.70;98.10;;;;;;21070191;28;20070;-62
2022/05/16 08:31:13;;;;;;;9.20;6.88;;;22.80;99.20;;;;;;21070086;28;20036;-63
2022/05/16 08:41:24;;;;;;;8.50;6.47;;;22.30;99.90;;;;;;21072533;27;20062;-57
2022/05/16 08:51:30;;;;;;;9.60;8.30;;;23.80;99.90;;;;;;21186259;27;20099;-64
2022/05/16 09:02:00;;;;;;;10.53;8.10;;;25.40;99.90;;;;;;21185713;27;20107;-64
2022/05/16 09:12:03;;;;;;;12.38;9.68;;;25.60;99.70;;;;;;21174653;27;20089;-63
2022/05/16 09:22:28;;;;;;;15.20;10.32;;;25.90;99.70;;;;;;21156119;27;20035;-57
2022/05/16 09:32:36;;;;;;;16.95;11.15;;;24.70;99.90;;;;;;21187840;27;20404;-56
2022/05/16 09:42:39;;;;;;;16.52;11.77;;;24.60;99.60;;;;;;21156463;27;20097;-62
2022/05/16 09:53:14;;;;;;;20.30;13.20;;;22.40;99.90;;;;;;21187259;27;20492;-62
2022/05/16 10:03:42;;;;;;;17.65;12.27;;;21.60;99.90;;;;;;21197324;27;20031;-63
2022/05/16 10:13:45;;;;;;;15.87;11.00;;;22.30;99.90;;;;;;21180048;27;20024;-63
2022/05/16 10:23:48;;;;;;;16.27;10.60;;;24.60;99.90;;;;;;21141871;27;20093;-57
2022/05/16 10:33:56;;;;;;;16.27;11.60;;;25.10;99.90;;;;;;21163827;28;20027;-64
2022/05/16 10:44:06;;;;;;;13.13;10.77;;;24.60;99.90;;;;;;20937564;28;20102;-64
2022/05/16 10:54:24;;;;;;;13.98;9.80;;;24.80;99.90;;;;;;20914626;28;20064;-57
2022/05/16 11:04:45;;;;;;;16.00;10.85;;;26.10;99.90;;;;;;20908437;28;20077;-64
2022/05/16 11:14:52;;;;;;;15.05;10.57;;;26.50;99.90;;;;;;20967066;28;20560;-65
2022/05/16 11:25:18;;;;;;;12.40;9.60;;;26.80;99.90;;;;;;21151278;27;20085;-64
2022/05/16 11:35:46;;;;;;;11.43;8.80;;;27.70;98.90;;;;;;21165737;27;20072;-65
2022/05/16 11:46:14;;;;;;;12.85;10.05;;;28.50;98.50;;;;;;21155675;27;20131;-64
2022/05/16 12:06:59;;;;;;;12.60;8.45;;;27.00;95.70;;;;;;21169288;27;20043;-64
2022/05/16 12:17:07;;;;;;;13.25;8.27;;;25.90;96.60;;;;;;21192428;27;20541;-64
2022/05/16 12:27:16;;;;;;;11.18;7.35;;;25.80;97.00;;;;;;21170420;27;20076;-63
2022/05/16 12:37:20;;;;;;;9.95;6.60;;;25.80;96.40;;;;;;21195643;27;20038;-65
2022/05/16 12:47:44;;;;;;;8.30;6.13;;;25.80;94.80;;;;;;21211351;27;20100;-64
2022/05/16 12:58:05;;;;;;;17.30;6.40;;;25.50;95.60;;;;;;21164828;27;20453;-66
2022/05/16 13:08:33;;;;;;;8.93;6.32;;;25.50;96.30;;;;;;21201911;27;20040;-58
2022/05/16 13:18:51;;;;;;;11.60;7.43;;;26.30;94.00;;;;;;21171854;27;20108;-65
2022/05/16 13:39:16;;;;;;;9.65;6.88;;;26.90;92.60;;;;;;21164933;27;20097;-66
2022/05/16 13:49:18;;;;;;;13.00;7.68;;;26.50;91.10;;;;;;21189716;27;20089;-64
2022/05/16 13:59:31;;;;;;;10.55;6.47;;;23.70;91.60;;;;;;21197089;27;20035;-64
2022/05/16 14:09:55;;;;;;;13.15;6.95;;;22.80;96.00;;;;;;21162548;27;20043;-57
2022/05/16 14:19:59;;;;;;;14.15;6.88;;;24.90;93.50;;;;;;21195921;27;20031;-64
2022/05/16 14:30:22;;;;;;;10.98;6.40;;;24.40;94.50;;;;;;21180683;27;20031;-64
2022/05/16 14:40:37;;;;;;;12.38;6.45;;;24.20;94.90;;;;;;21163133;28;20035;-63
2022/05/16 14:50:40;;;;;;;9.90;7.32;;;23.30;95.40;;;;;;21168582;28;20444;-63
2022/05/16 15:11:08;;;;;;;9.50;6.80;;;21.30;97.30;;;;;;21127188;28;20035;-62
2022/05/16 15:21:11;;;;;;;10.02;5.72;;;21.00;97.20;;;;;;21152918;28;20036;-62
2022/05/16 15:31:14;;;;;;;18.55;7.53;;;20.40;97.80;;;;;;21134819;28;20031;-62
2022/05/16 15:41:18;;;;;;;10.98;6.18;;;20.30;97.70;;;;;;21177923;27;20095;-54
2022/05/16 15:51:21;;;;;;;15.38;6.78;;;20.50;99.10;;;;;;21163780;27;20039;-62
2022/05/16 16:01:23;;;;;;;9.02;5.28;;;21.40;96.00;;;;;;21174654;27;20112;-62
2022/05/16 16:11:30;;;;;;;8.88;5.35;;;21.10;97.80;;;;;;21175434;27;20039;-53
2022/05/16 16:21:34;;;;;;;10.73;6.38;;;21.00;97.20;;;;;;21200225;27;20036;-62
2022/05/16 16:31:39;;;;;;;10.25;6.03;;;20.60;98.40;;;;;;21163197;27;20093;-62
2022/05/16 16:41:42;;;;;;;8.73;5.68;;;20.10;98.80;;;;;;21205486;27;20047;-55
2022/05/16 17:02:21;;;;;;;9.82;6.50;;;19.00;99.70;;;;;;21164996;27;20051;-60
2022/05/16 17:12:27;;;;;;;10.32;5.38;;;18.80;99.60;;;;;;21173018;27;20488;-61
2022/05/16 17:22:31;;;;;;;6.28;4.35;;;18.40;99.30;;;;;;21174487;27;20031;-61
2022/05/16 17:32:34;;;;;;;15.95;6.15;;;18.20;99.90;;;;;;21185759;27;20076;-61
2022/05/16 17:42:38;;;;;;;11.43;5.80;;;17.80;99.90;;;;;;21188052;27;20123;-60
2022/05/16 17:52:40;;;;;;;6.78;3.30;;;17.30;99.90;;;;;;21185516;27;20050;-60
2022/05/16 18:02:43;;;;;;;6.07;3.45;;;16.70;99.90;;;;;;21184885;27;20545;-59
2022/05/16 18:12:49;;;;;;;10.40;4.82;;;15.80;99.90;;;;;;21129827;28;20036;-59
2022/05/16 18:22:55;;;;;;;7.53;3.75;;;15.40;99.90;;;;;;21134120;27;20143;-59
2022/05/16 18:33:01;;;;;;;6.50;3.80;;;14.90;99.90;;;;;;21181673;27;20035;-59
2022/05/16 18:53:27;;;;;;;3.13;2.08;;;14.00;99.90;;;;;;21169086;28;20080;-57
2022/05/16 19:03:31;;;;;;;8.48;1.90;;;13.90;99.90;;;;;;21169479;27;20039;-59
2022/05/16 19:13:35;;;;;;;4.93;2.00;;;14.00;99.90;;;;;;21180315;27;20043;-59
2022/05/16 19:23:38;;;;;;;4.50;2.28;;;14.10;99.90;;;;;;21156408;27;20027;-50
2022/05/16 19:33:41;;;;;;;3.85;2.40;;;13.80;99.90;;;;;;21176918;27;20089;-59
2022/05/16 19:43:45;;;;;;;5.88;2.95;;;13.70;99.90;;;;;;21172260;27;20381;-53
2022/05/16 19:53:48;;;;;;;6.88;2.85;;;13.70;99.90;;;;;;21187421;27;20031;-53
2022/05/16 20:03:51;;;;;;;8.93;3.70;;;13.60;99.90;;;;;;21153079;28;20043;-59
2022/05/16 20:13:54;;;;;;;3.83;2.58;;;13.50;99.90;;;;;;21164654;27;20574;-53
2022/05/16 20:34:20;;;;;;;3.78;1.67;;;13.60;99.90;;;;;;21191901;27;20043;-53
2022/05/16 20:44:23;;;;;;;3.03;1.92;;;13.80;99.90;;;;;;21195489;27;20096;-60
2022/05/16 20:54:26;;;;;;;1.77;1.13;;;13.80;99.90;;;;;;21203484;27;20107;-59
2022/05/16 21:04:29;;;;;;;1.95;1.27;;;13.60;99.90;;;;;;21174076;27;20061;-59
2022/05/16 21:14:33;;;;;;;1.60;1.30;;;13.50;99.90;;;;;;21180886;27;20027;-59
2022/05/16 21:24:38;;;;;;;3.88;1.35;;;13.40;99.90;;;;;;21141447;27;20089;-59
2022/05/16 21:34:40;;;;;;;1.10;0.75;;;13.30;99.90;;;;;;21128374;28;20107;-59
2022/05/16 21:55:04;;;;;;;1.55;0.77;;;12.80;99.90;;;;;;21134551;28;20047;-59
2022/05/16 22:05:06;;;;;;;1.05;0.75;;;12.30;99.90;;;;;;21147201;28;20070;-59
2022/05/16 22:15:11;;;;;;;1.30;0.85;;;12.30;99.90;;;;;;21118411;28;20086;-59
2022/05/16 22:25:17;;;;;;;1.90;0.88;;;11.90;99.90;;;;;;21142467;28;20392;-59
2022/05/16 22:35:22;;;;;;;0.90;0.50;;;11.60;99.90;;;;;;21136194;28;20044;-60
2022/05/16 22:45:25;;;;;;;1.10;0.80;;;11.50;99.90;;;;;;21153769;28;20047;-59
2022/05/16 22:55:27;;;;;;;0.90;0.60;;;11.60;99.90;;;;;;21174866;28;20035;-59
2022/05/16 23:05:32;;;;;;;1.10;0.50;;;12.10;99.90;;;;;;21160127;28;20043;-60
2022/05/16 23:15:35;;;;;;;0.63;0.50;;;12.30;99.90;;;;;;21160020;28;20036;-59
2022/05/16 23:25:38;;;;;;;0.90;0.28;;;12.20;99.90;;;;;;21164324;28;20080;-53
2022/05/16 23:36:12;;;;;;;0.85;0.50;;;12.10;99.90;;;;;;21149178;28;20055;-59
2022/05/16 23:46:04;;;;;;;1.02;0.60;;;11.80;99.90;;;;;;21177711;28;20051;-59
2022/05/16 23:56:07;;;;;;;0.82;0.52;;;11.40;99.90;;;;;;21148919;27;20031;-59
